Time;durP1;ratioP1;P1;durP2;ratioP2;P2;SDS_P1;SDS_P2;PMS_P1;PMS_P2;Temp;Humidity;BMP_temperature;BMP_pressure;BME280_temperature;BME280_humidity;BME280_pressure;Samples;Min_cycle;Max_cycle;Signal;HPM_P1;HPM_P2
2023/08/29 04:09:18;;;;;;;14.85;9.40;;;;;;;24.09;81.17;99123.84;5605798;31;76502;-57
2023/08/29 04:12:21;;;;;;;12.50;8.98;;;;;;;24.09;81.17;99123.84;5603333;31;33361;-57
2023/08/29 04:15:24;;;;;;;12.07;8.32;;;;;;;23.65;83.70;99132.69;5603460;31;34206;-57
2023/08/29 04:18:26;;;;;;;11.75;8.70;;;;;;;23.68;87.71;99143.62;5603464;31;34198;-57
2023/08/29 04:21:28;;;;;;;14.00;8.63;;;;;;;23.70;85.54;99145.19;5603698;31;33508;-57
2023/08/29 04:24:31;;;;;;;12.82;8.70;;;;;;;23.67;86.48;99163.16;5603569;31;35080;-58
2023/08/29 04:27:34;;;;;;;13.75;8.38;;;;;;;23.73;85.97;99175.28;5603205;31;33657;-57
2023/08/29 04:30:37;;;;;;;11.48;8.20;;;;;;;23.73;87.07;99183.47;5603353;31;33563;-57
2023/08/29 04:33:42;;;;;;;11.93;8.45;;;;;;;23.89;80.76;99177.53;5603274;31;33434;-57
2023/08/29 04:36:45;;;;;;;15.20;8.70;;;;;;;23.85;85.78;99176.78;5603063;31;33764;-57
2023/08/29 04:39:47;;;;;;;13.52;7.82;;;;;;;24.04;81.40;99178.22;5603065;31;33652;-57
2023/08/29 04:42:51;;;;;;;11.73;8.07;;;;;;;24.04;83.77;99178.22;5603461;31;34326;-57
2023/08/29 04:45:54;;;;;;;11.45;8.45;;;;;;;24.05;89.73;99177.06;5603202;31;33602;-58
2023/08/29 04:48:57;;;;;;;11.88;8.38;;;;;;;23.98;87.44;99180.63;5603175;31;32790;-58
2023/08/29 04:51:59;;;;;;;11.07;8.70;;;;;;;24.01;85.61;99184.53;5602854;31;34535;-58
2023/08/29 04:55:02;;;;;;;20.33;8.73;;;;;;;24.01;90.91;99184.53;5603107;31;34444;-57
2023/08/29 04:58:05;;;;;;;11.90;7.95;;;;;;;23.97;86.96;99186.47;5601952;31;34334;-57
2023/08/29 05:01:08;;;;;;;13.35;8.55;;;;;;;24.03;88.48;99185.66;5602279;31;33345;-57
2023/08/29 05:04:10;;;;;;;12.75;8.13;;;;;;;24.08;85.02;99188.00;5602448;31;33631;-57
2023/08/29 05:07:13;;;;;;;11.65;8.05;;;;;;;24.19;80.46;99185.19;5594255;31;33196;-57
2023/08/29 05:10:16;;;;;;;13.32;7.97;;;;;;;24.35;84.14;99196.41;5601866;31;33735;-57
2023/08/29 05:13:18;;;;;;;19.35;8.30;;;;;;;24.26;83.76;99196.09;5602637;31;33939;-57
2023/08/29 05:16:21;;;;;;;15.73;8.43;;;;;;;24.29;82.37;99210.94;5601886;31;34166;-58
2023/08/29 05:19:23;;;;;;;10.77;8.00;;;;;;;24.28;81.23;99218.38;5595467;31;32425;-57
2023/08/29 05:22:25;;;;;;;12.25;7.72;;;;;;;24.23;80.89;99210.56;5589268;31;33669;-57
2023/08/29 05:25:28;;;;;;;11.20;7.82;;;;;;;24.29;81.48;99222.66;5589458;31;33252;-57
2023/08/29 05:28:30;;;;;;;10.60;7.45;;;;;;;24.31;81.31;99222.28;5588566;31;34310;-58
2023/08/29 05:31:32;;;;;;;13.27;8.00;;;;;;;24.33;80.21;99225.38;5588968;31;34491;-57
2023/08/29 05:34:35;;;;;;;16.50;8.35;;;;;;;24.38;82.83;99224.97;5588651;31;33744;-57
2023/08/29 05:37:38;;;;;;;12.75;9.00;;;;;;;24.36;83.32;99217.16;5589111;31;33569;-57
2023/08/29 05:40:41;;;;;;;12.70;7.53;;;;;;;24.37;91.46;99207.78;5588705;31;33722;-57
2023/08/29 05:43:44;;;;;;;14.45;8.68;;;;;;;24.38;80.23;99209.31;5589376;31;33555;-57
2023/08/29 05:46:46;;;;;;;13.50;7.70;;;;;;;24.48;80.47;99202.25;5588890;31;34234;-58
2023/08/29 05:49:49;;;;;;;14.75;8.30;;;;;;;24.53;88.81;99204.53;5589199;31;34459;-57
2023/08/29 05:52:51;;;;;;;18.50;8.50;;;;;;;24.58;83.33;99203.34;5588810;31;33619;-57
2023/08/29 05:55:54;;;;;;;11.10;8.07;;;;;;;24.53;86.18;99192.81;5589290;31;34269;-57
2023/08/29 05:58:56;;;;;;;19.67;8.70;;;;;;;24.52;91.90;99197.50;5588701;31;33091;-57
2023/08/29 06:01:58;;;;;;;19.55;8.30;;;;;;;24.57;84.70;99202.56;5589110;31;33654;-57
2023/08/29 06:05:01;;;;;;;17.15;8.68;;;;;;;24.55;84.78;99201.41;5587960;31;34207;-57
2023/08/29 06:08:04;;;;;;;13.45;7.93;;;;;;;24.55;83.30;99209.63;5583809;31;33750;-57
2023/08/29 06:11:21;;;;;;;14.70;9.13;;;;;;;24.59;85.90;99213.88;5581111;31;34411;-57
2023/08/29 06:14:25;;;;;;;16.30;8.85;;;;;;;24.48;87.57;99195.97;5588195;31;34528;-57
2023/08/29 06:17:27;;;;;;;15.85;9.00;;;;;;;24.59;89.60;99232.28;5588175;31;33670;-57
2023/08/29 06:20:31;;;;;;;14.18;9.25;;;;;;;24.46;85.27;99184.63;5588092;31;33659;-57
2023/08/29 06:23:34;;;;;;;14.87;9.95;;;;;;;24.40;90.33;99189.72;5587967;31;34391;-57
2023/08/29 06:26:37;;;;;;;15.10;9.88;;;;;;;24.33;92.12;99230.87;5588087;31;34263;-58
2023/08/29 06:29:39;;;;;;;30.25;13.75;;;;;;;24.34;93.74;99240.66;5580840;31;34357;-58
2023/08/29 06:32:42;;;;;;;25.45;11.82;;;;;;;24.29;97.08;99239.09;5572871;31;33567;-58
2023/08/29 06:35:45;;;;;;;21.27;11.63;;;;;;;24.27;96.31;99238.75;5577884;31;34252;-58
2023/08/29 06:38:48;;;;;;;18.05;8.38;;;;;;;24.03;100.00;99221.25;5580485;31;33646;-57
2023/08/29 06:41:51;;;;;;;15.98;8.73;;;;;;;24.06;91.95;99204.03;5583473;31;33651;-57
2023/08/29 06:44:57;;;;;;;14.60;8.55;;;;;;;23.93;93.62;99213.88;5580275;31;31783;-57
2023/08/29 06:47:59;;;;;;;16.90;8.68;;;;;;;23.75;96.55;99211.22;5585261;31;32448;-57
2023/08/29 06:51:02;;;;;;;14.57;9.10;;;;;;;23.62;96.15;99218.28;5588250;31;33644;-57
2023/08/29 06:54:05;;;;;;;18.15;9.18;;;;;;;23.52;99.09;99238.25;5570718;31;33517;-57
2023/08/29 06:57:07;;;;;;;19.02;9.57;;;;;;;23.33;100.00;99277.75;5568284;32;34232;-57
2023/08/29 07:00:10;;;;;;;14.02;9.35;;;;;;;23.30;100.00;99301.19;5571041;31;34265;-57
2023/08/29 07:03:13;;;;;;;15.70;9.68;;;;;;;23.27;100.00;99329.31;5587933;31;33542;-57
2023/08/29 07:06:16;;;;;;;14.70;9.15;;;;;;;23.29;100.00;99348.06;5587262;31;34191;-58
2023/08/29 07:09:18;;;;;;;14.63;10.65;;;;;;;23.39;99.52;99356.25;5588039;31;34413;-57
2023/08/29 07:12:21;;;;;;;21.35;9.25;;;;;;;23.34;95.73;99351.16;5588082;31;34304;-58
2023/08/29 07:15:23;;;;;;;16.23;8.45;;;;;;;23.47;95.29;99375.41;5587763;31;33549;-57
2023/08/29 07:18:27;;;;;;;16.65;9.00;;;;;;;23.43;96.88;99354.31;5586433;31;33663;-56
2023/08/29 07:21:30;;;;;;;18.83;8.20;;;;;;;23.44;96.08;99364.09;5576397;31;33684;-57
2023/08/29 07:24:33;;;;;;;15.65;9.18;;;;;;;23.35;92.15;99338.31;5586149;31;33579;-57
2023/08/29 07:27:35;;;;;;;15.55;8.65;;;;;;;23.24;93.93;99321.88;5586680;31;33617;-56
2023/08/29 07:30:42;;;;;;;20.35;9.45;;;;;;;23.03;100.00;99327.34;5585101;31;33330;-57
2023/08/29 07:33:44;;;;;;;13.98;9.15;;;;;;;23.01;100.00;99325.00;5581497;31;33583;-56
2023/08/29 07:36:47;;;;;;;18.62;8.98;;;;;;;23.00;100.00;99303.53;5586562;31;33555;-55
2023/08/29 07:39:49;;;;;;;16.45;9.43;;;;;;;22.91;100.00;99304.69;5585283;31;33661;-57
2023/08/29 07:42:52;;;;;;;19.85;10.52;;;;;;;23.04;100.00;99290.66;5584399;31;33550;-56
2023/08/29 07:45:55;;;;;;;15.88;10.77;;;;;;;23.15;100.00;99284.03;5586266;31;33588;-56
2023/08/29 07:48:58;;;;;;;16.08;10.23;;;;;;;23.06;100.00;99291.06;5583949;31;32291;-56
2023/08/29 07:52:01;;;;;;;14.27;9.38;;;;;;;23.03;100.00;99313.69;5586356;31;33494;-56
2023/08/29 07:55:05;;;;;;;15.13;10.15;;;;;;;23.07;100.00;99309.00;5585005;31;33737;-57
2023/08/29 07:58:08;;;;;;;16.67;10.10;;;;;;;22.98;100.00;99280.12;5586910;31;33688;-57
2023/08/29 08:01:11;;;;;;;15.00;10.07;;;;;;;23.00;100.00;99276.97;5586096;31;33668;-56
2023/08/29 08:04:14;;;;;;;14.95;9.80;;;;;;;22.94;100.00;99282.06;5585950;31;33584;-56
2023/08/29 08:07:16;;;;;;;15.30;10.68;;;;;;;;;;5585412;31;34268;-58
2023/08/29 08:10:19;;;;;;;18.35;10.25;;;;;;;23.13;100.00;99349.22;5583511;31;33561;-58
2023/08/29 08:13:21;;;;;;;15.45;9.43;;;;;;;23.14;100.00;99353.50;5585255;31;33369;-57
2023/08/29 08:16:26;;;;;;;16.43;9.87;;;;;;;23.22;100.00;99340.66;5583683;31;33513;-57
2023/08/29 08:19:29;;;;;;;12.80;10.05;;;;;;;23.14;100.00;99331.66;5586106;31;33611;-57
2023/08/29 08:22:31;;;;;;;16.20;10.23;;;;;;;23.17;100.00;99319.16;5584507;31;33650;-57
2023/08/29 08:25:34;;;;;;;15.60;10.30;;;;;;;23.18;100.00;99332.44;5582659;31;34451;-57
2023/08/29 08:28:36;;;;;;;15.52;9.93;;;;;;;23.10;100.00;99365.62;5585268;31;33720;-57
2023/08/29 08:31:38;;;;;;;16.60;10.48;;;;;;;23.11;100.00;99395.31;5585917;31;34409;-57
2023/08/29 08:34:41;;;;;;;13.32;9.90;;;;;;;23.02;100.00;99411.31;5584058;31;33566;-58
2023/08/29 08:37:44;;;;;;;18.70;10.65;;;;;;;22.91;100.00;99419.47;5584064;31;33690;-57
2023/08/29 08:40:46;;;;;;;17.12;10.40;;;;;;;22.96;100.00;99415.59;5584920;31;33626;-56
2023/08/29 08:43:49;;;;;;;17.48;11.12;;;;;;;22.79;100.00;99408.09;5584750;31;34291;-57
2023/08/29 08:46:53;;;;;;;16.77;10.30;;;;;;;22.92;100.00;99428.44;5584863;31;33664;-58
2023/08/29 08:49:55;;;;;;;22.00;12.30;;;;;;;22.99;100.00;99455.81;5585135;31;34191;-57
2023/08/29 08:52:59;;;;;;;19.05;11.85;;;;;;;23.03;100.00;99467.53;5584849;31;34413;-57
2023/08/29 08:56:02;;;;;;;22.20;11.70;;;;;;;;;;5587779;31;34426;-56
2023/08/29 08:59:05;;;;;;;17.17;10.65;;;;;;;23.05;98.88;99450.75;5588079;31;34017;-56
2023/08/29 09:02:12;;;;;;;16.55;9.48;;;;;;;22.96;98.58;99442.91;5588136;31;33354;-57
2023/08/29 09:05:14;;;;;;;15.68;9.15;;;;;;;23.03;100.00;99444.87;5587553;31;33735;-56
2023/08/29 09:08:20;;;;;;;16.58;10.07;;;;;;;23.08;100.00;99431.63;5586884;31;33925;-56
2023/08/29 09:11:23;;;;;;;19.48;10.93;;;;;;;23.00;98.91;99429.25;5588595;31;33387;-56
2023/08/29 09:14:26;;;;;;;22.80;11.43;;;;;;;23.00;100.00;99401.94;5586271;31;33675;-57
2023/08/29 09:17:28;;;;;;;18.80;10.07;;;;;;;22.89;100.00;99407.34;5587796;31;33714;-56
2023/08/29 09:20:33;;;;;;;17.62;9.88;;;;;;;22.79;100.00;99392.50;5587404;31;33548;-57
2023/08/29 09:23:37;;;;;;;18.35;13.68;;;;;;;22.76;100.00;99376.87;5588222;31;34481;-56
2023/08/29 09:26:41;;;;;;;22.15;11.00;;;;;;;22.75;100.00;99358.91;5577892;31;34420;-57
2023/08/29 09:29:43;;;;;;;18.17;9.85;;;;;;;22.67;100.00;99335.47;5587647;31;34376;-57
2023/08/29 09:32:50;;;;;;;13.13;8.82;;;;;;;22.68;100.00;99337.84;5587168;31;33769;-57
2023/08/29 09:35:53;;;;;;;13.70;9.18;;;;;;;22.62;99.57;99342.09;5588305;31;33898;-57
2023/08/29 09:38:57;;;;;;;17.10;10.38;;;;;;;22.75;98.59;99340.56;5588631;31;33846;-57
2023/08/29 09:42:07;;;;;;;16.50;11.32;;;;;;;22.68;98.31;99323.37;5588521;31;34061;-57
2023/08/29 09:45:15;;;;;;;17.52;9.63;;;;;;;22.54;100.00;99294.06;5569097;32;33825;-56
2023/08/29 09:48:18;;;;;;;23.12;15.48;;;;;;;22.56;100.00;99310.88;5577090;31;32168;-56
2023/08/29 09:51:28;;;;;;;11.73;8.38;;;;;;;22.70;100.00;99293.72;5587783;31;33107;-56
2023/08/29 09:54:32;;;;;;;13.55;9.38;;;;;;;22.62;100.00;99264.84;5587648;31;33314;-56
2023/08/29 09:57:37;;;;;;;13.52;8.80;;;;;;;22.88;100.00;99258.19;5588375;31;33756;-57
2023/08/29 10:00:41;;;;;;;14.10;9.27;;;;;;;22.67;100.00;99286.31;5588773;31;34410;-56
2023/08/29 10:03:46;;;;;;;16.40;9.57;;;;;;;22.69;100.00;99284.75;5587700;31;34416;-56
2023/08/29 10:06:55;;;;;;;13.02;8.27;;;;;;;22.51;100.00;99294.84;5588220;31;34032;-57
2023/08/29 10:09:59;;;;;;;15.68;9.30;;;;;;;22.51;95.93;99297.56;5587660;31;34035;-56
2023/08/29 10:13:04;;;;;;;14.38;9.77;;;;;;;22.49;100.00;99302.66;5587485;31;33630;-57
2023/08/29 10:16:07;;;;;;;14.93;8.73;;;;;;;22.45;100.00;99290.94;5588163;31;33657;-56
2023/08/29 10:19:13;;;;;;;16.42;9.02;;;;;;;22.41;100.00;99301.84;5587965;31;34229;-57
2023/08/29 10:22:16;;;;;;;13.07;9.13;;;;;;;22.49;98.56;99314.37;5588088;31;33680;-56
2023/08/29 10:45:20;;;;;;;14.75;9.15;;;;;;;22.63;100.00;99296.44;5585137;31;33380;-57
2023/08/29 10:48:30;;;;;;;16.20;9.40;;;;;;;22.64;100.00;99306.19;5587667;31;33946;-57
2023/08/29 10:51:32;;;;;;;14.57;11.70;;;;;;;22.77;100.00;99306.59;5587481;31;33678;-57
2023/08/29 10:54:35;;;;;;;12.50;9.05;;;;;;;22.96;100.00;99293.38;5586828;31;33722;-57
2023/08/29 10:57:37;;;;;;;13.40;9.50;;;;;;;22.94;100.00;99292.97;5582670;31;33198;-57
2023/08/29 11:00:39;;;;;;;13.18;9.20;;;;;;;23.02;100.00;99277.37;5575668;31;33637;-56
2023/08/29 11:03:49;;;;;;;20.08;9.70;;;;;;;23.17;98.90;99270.72;5568327;32;33787;-56
2023/08/29 11:06:55;;;;;;;12.95;9.40;;;;;;;23.26;95.81;99264.88;5567852;32;33595;-57
2023/08/29 11:10:20;;;;;;;12.35;9.80;;;;;;;23.23;100.00;99262.13;5581780;31;33645;-57
2023/08/29 11:13:23;;;;;;;;;;;;;;;23.19;100.00;99245.75;5585494;31;33753;-56
2023/08/29 11:16:27;;;;;;;13.35;9.43;;;;;;;23.35;100.00;99226.97;5585816;31;34288;-57
2023/08/29 11:19:29;;;;;;;15.77;10.35;;;;;;;23.33;93.64;99231.25;5585184;31;34428;-57
2023/08/29 11:22:32;;;;;;;15.73;10.23;;;;;;;23.33;95.65;99218.34;5587685;31;34435;-57
2023/08/29 11:25:37;;;;;;;13.40;10.48;;;;;;;23.45;98.93;99214.44;5587868;31;33879;-57
2023/08/29 11:28:42;;;;;;;12.65;10.07;;;;;;;23.55;95.43;99218.31;5587262;31;34060;-57
2023/08/29 11:31:45;;;;;;;13.80;9.85;;;;;;;23.66;97.04;99221.78;5587760;31;33693;-57
2023/08/29 11:34:54;;;;;;;15.65;11.00;;;;;;;23.65;94.66;99223.75;5585423;31;33900;-57
2023/08/29 11:37:58;;;;;;;13.35;9.25;;;;;;;23.70;98.60;99219.84;5586874;31;33731;-59
2023/08/29 11:41:05;;;;;;;21.40;10.48;;;;;;;23.86;95.92;99222.13;5587765;31;33643;-56
2023/08/29 11:44:29;;;;;;;15.38;9.43;;;;;;;23.91;94.65;99227.97;5579482;31;33624;-57
2023/08/29 11:47:53;;;;;;;25.97;10.00;;;;;;;23.89;91.72;99222.09;5587172;31;33763;-56
2023/08/29 11:50:59;;;;;;;14.13;9.60;;;;;;;24.05;94.20;99224.37;5586198;31;34508;-56
2023/08/29 11:54:03;;;;;;;13.93;9.48;;;;;;;24.10;91.67;99236.84;5587264;31;34340;-57
2023/08/29 11:57:06;;;;;;;13.93;8.70;;;;;;;24.12;94.92;99232.56;5586706;31;33625;-57
2023/08/29 12:00:11;;;;;;;17.90;9.20;;;;;;;24.23;90.91;99240.69;5587134;31;34063;-57
2023/08/29 12:03:13;;;;;;;27.40;9.60;;;;;;;24.34;86.96;99241.44;5587235;31;34376;-56
2023/08/29 12:06:16;;;;;;;13.15;7.90;;;;;;;24.32;90.99;99252.00;5587073;31;33790;-56
2023/08/29 12:09:23;;;;;;;41.37;10.55;;;;;;;24.37;88.65;99251.59;5581539;31;33681;-56
2023/08/29 12:12:34;;;;;;;11.85;8.38;;;;;;;24.37;91.69;99248.84;5581295;31;34339;-57
2023/08/29 12:15:38;;;;;;;11.12;7.47;;;;;;;24.41;87.40;99251.59;5567537;32;34343;-57
2023/08/29 12:18:47;;;;;;;14.57;8.40;;;;;;;24.59;80.39;99248.72;5578338;31;34124;-57
2023/08/29 12:21:54;;;;;;;10.93;7.40;;;;;;;24.49;82.50;99263.28;5586899;31;34364;-57
2023/08/29 12:24:58;;;;;;;17.15;8.35;;;;;;;24.58;78.86;99264.38;5587438;31;33427;-56
2023/08/29 12:28:01;;;;;;;11.10;7.33;;;;;;;24.56;85.96;99255.78;5587014;31;34560;-56
2023/08/29 12:31:06;;;;;;;17.65;7.65;;;;;;;24.63;83.84;99267.88;5588648;31;34435;-57
2023/08/29 12:34:08;;;;;;;12.77;7.25;;;;;;;24.64;84.27;99270.22;5588498;31;33614;-56
2023/08/29 12:37:11;;;;;;;11.02;7.25;;;;;;;24.61;80.16;99274.56;5588643;31;33799;-56
2023/08/29 12:40:15;;;;;;;10.75;7.10;;;;;;;24.65;83.81;99285.47;5584049;31;33608;-57
2023/08/29 12:43:17;;;;;;;8.68;7.55;;;;;;;24.64;82.37;99278.44;5576234;31;34330;-57
2023/08/29 12:46:19;;;;;;;12.90;7.75;;;;;;;24.78;85.26;99274.81;5577042;31;32710;-57
2023/08/29 12:49:22;;;;;;;10.98;7.18;;;;;;;24.70;88.23;99267.81;5588951;31;33635;-57
2023/08/29 12:52:24;;;;;;;13.13;7.97;;;;;;;24.66;84.76;99267.06;5588741;31;33601;-57
2023/08/29 12:55:26;;;;;;;11.48;7.37;;;;;;;24.71;85.53;99264.69;5589059;31;34104;-58
2023/08/29 12:58:29;;;;;;;17.20;7.60;;;;;;;24.81;85.89;99274.81;5589104;31;33281;-57
2023/08/29 13:01:31;;;;;;;11.05;7.30;;;;;;;24.85;83.28;99258.31;5589108;31;33610;-59
2023/08/29 13:04:33;;;;;;;10.95;7.28;;;;;;;24.98;83.40;99250.38;5586853;31;33776;-58
2023/08/29 13:07:36;;;;;;;11.07;7.05;;;;;;;24.99;82.70;99252.72;5588248;31;34610;-57
2023/08/29 13:10:38;;;;;;;9.82;7.12;;;;;;;25.12;77.04;99263.22;5589239;31;33608;-57
2023/08/29 13:13:41;;;;;;;15.52;7.03;;;;;;;25.11;80.53;99262.41;5589127;31;33365;-57
2023/08/29 13:16:43;;;;;;;10.73;6.57;;;;;;;25.18;79.78;99270.59;5589262;31;34286;-57
2023/08/29 13:19:45;;;;;;;13.23;6.97;;;;;;;25.18;73.38;99270.59;5588874;31;33698;-57
2023/08/29 13:22:49;;;;;;;13.80;7.05;;;;;;;25.10;77.81;99266.34;5579882;31;34320;-57
2023/08/29 13:25:51;;;;;;;11.50;7.18;;;;;;;25.09;82.34;99273.78;5587019;31;33616;-57
2023/08/29 13:28:54;;;;;;;10.77;6.87;;;;;;;25.18;76.92;99262.37;5587501;31;34375;-57
2023/08/29 13:31:56;;;;;;;14.73;7.45;;;;;;;25.20;75.49;99260.03;5588958;31;34331;-57
2023/08/29 13:34:59;;;;;;;11.75;7.50;;;;;;;25.25;78.68;99276.03;5589054;31;34067;-57
2023/08/29 13:38:03;;;;;;;14.60;7.70;;;;;;;25.26;75.15;99276.78;5589016;31;34283;-57
2023/08/29 13:41:07;;;;;;;9.75;7.12;;;;;;;25.24;77.02;99271.72;5589134;31;33777;-57
2023/08/29 13:44:10;;;;;;;15.77;8.35;;;;;;;25.30;76.07;99263.84;5588261;31;33777;-57
2023/08/29 13:47:12;;;;;;;9.90;7.62;;;;;;;25.26;74.84;99263.84;5589073;31;33842;-57
2023/08/29 13:50:14;;;;;;;17.23;7.53;;;;;;;25.20;76.68;99271.00;5589259;31;34294;-57
2023/08/29 13:53:17;;;;;;;11.27;7.82;;;;;;;25.27;75.68;99257.19;5589521;31;33653;-57
2023/08/29 13:56:19;;;;;;;19.17;8.35;;;;;;;25.19;76.55;99252.94;5582889;31;33723;-57
2023/08/29 13:59:22;;;;;;;13.05;7.87;;;;;;;25.15;79.12;99246.72;5589563;31;34375;-57
2023/08/29 14:02:24;;;;;;;16.08;7.85;;;;;;;25.20;82.54;99240.00;5589446;31;34230;-57
2023/08/29 14:05:27;;;;;;;13.23;7.47;;;;;;;25.22;83.47;99243.91;5589296;31;33771;-57
2023/08/29 14:08:30;;;;;;;12.13;7.50;;;;;;;25.33;79.24;99224.63;5589286;31;34405;-57
2023/08/29 14:11:32;;;;;;;9.75;7.40;;;;;;;25.34;75.79;99217.19;5589356;31;33785;-57
2023/08/29 14:14:34;;;;;;;14.43;8.40;;;;;;;25.26;79.34;99227.41;5589118;31;33764;-57
2023/08/29 14:17:37;;;;;;;11.38;7.32;;;;;;;25.30;78.04;99223.47;5589322;31;33661;-57
2023/08/29 14:20:45;;;;;;;13.73;8.43;;;;;;;25.31;79.15;99225.03;5589163;31;34345;-57
2023/08/29 14:23:48;;;;;;;14.38;7.60;;;;;;;25.26;83.71;99236.44;5588497;31;33699;-57
2023/08/29 14:26:51;;;;;;;10.32;8.20;;;;;;;25.27;79.02;99245.47;5588766;31;33721;-58
2023/08/29 14:29:53;;;;;;;12.73;8.05;;;;;;;25.27;79.38;99243.50;5588770;31;33621;-57
2023/08/29 14:32:56;;;;;;;15.80;7.28;;;;;;;25.32;79.01;99231.28;5589223;31;33379;-57
2023/08/29 14:36:00;;;;;;;14.45;8.52;;;;;;;25.30;76.59;99234.44;5588489;31;34391;-58
2023/08/29 14:39:03;;;;;;;10.73;7.40;;;;;;;25.18;80.68;99234.19;5589167;31;33736;-57
2023/08/29 14:42:05;;;;;;;16.55;7.93;;;;;;;25.19;78.19;99230.25;5589065;31;33628;-58
2023/08/29 14:45:08;;;;;;;11.23;7.82;;;;;;;25.18;78.15;99221.25;5588353;31;34319;-57
2023/08/29 14:48:11;;;;;;;12.40;8.32;;;;;;;25.23;80.46;99220.81;5586938;31;33769;-57
2023/08/29 14:51:14;;;;;;;13.62;7.62;;;;;;;25.17;80.12;99218.91;5586650;31;33417;-57
2023/08/29 14:54:16;;;;;;;10.63;6.78;;;;;;;25.16;79.35;99217.34;5588156;31;33758;-57
2023/08/29 14:57:19;;;;;;;12.30;7.60;;;;;;;25.09;76.36;99220.91;5588994;31;34286;-57
